createdAt,value
2024-02-29T00:02:14.819Z,16.78
2024-02-29T00:04:44.182Z,16.82
2024-02-29T00:07:10.940Z,16.84
2024-02-29T00:09:37.658Z,16.79
2024-02-29T00:12:05.320Z,16.80
2024-02-29T00:14:32.104Z,16.81
2024-02-29T00:16:59.360Z,16.80
2024-02-29T00:19:26.013Z,16.85
2024-02-29T00:21:52.671Z,16.83
2024-02-29T00:24:19.371Z,16.77
2024-02-29T00:26:46.712Z,16.78
2024-02-29T00:29:13.333Z,16.74
2024-02-29T00:31:46.108Z,16.72
2024-02-29T00:34:13.408Z,16.74
2024-02-29T00:36:40.188Z,16.77
2024-02-29T00:39:14.416Z,16.72
2024-02-29T00:41:41.856Z,16.74
2024-02-29T00:44:08.509Z,16.72
2024-02-29T00:46:38.362Z,16.75
2024-02-29T00:49:05.061Z,16.72
2024-02-29T00:51:32.338Z,16.71
2024-02-29T00:53:59.508Z,16.71
2024-02-29T00:56:26.495Z,16.72
2024-02-29T00:58:53.121Z,16.70
2024-02-29T01:01:19.844Z,16.69
2024-02-29T01:03:46.606Z,16.67
2024-02-29T01:06:13.265Z,16.67
2024-02-29T01:08:39.915Z,16.71
2024-02-29T01:11:06.867Z,16.71
2024-02-29T01:13:33.636Z,16.65
2024-02-29T01:16:00.301Z,16.65
2024-02-29T01:18:26.926Z,16.67
2024-02-29T01:20:53.550Z,16.60
2024-02-29T01:23:20.187Z,16.62
2024-02-29T01:25:46.804Z,16.58
2024-02-29T01:28:13.550Z,16.59
2024-02-29T01:30:40.232Z,16.57
2024-02-29T01:33:06.938Z,16.58
2024-02-29T01:35:33.605Z,16.60
2024-02-29T01:38:00.223Z,16.62
2024-02-29T01:40:26.821Z,16.59
2024-02-29T01:42:53.498Z,16.53
2024-02-29T01:45:20.360Z,16.51
2024-02-29T01:47:47.044Z,16.48
2024-02-29T01:50:15.206Z,16.53
2024-02-29T01:52:42.768Z,16.58
2024-02-29T01:55:11.316Z,16.61
2024-02-29T01:57:38.982Z,16.60
2024-02-29T02:00:07.157Z,16.53
2024-02-29T02:02:33.812Z,16.57
2024-02-29T02:05:00.448Z,16.54
2024-02-29T02:07:27.350Z,16.58
2024-02-29T02:09:54.321Z,16.52
2024-02-29T02:12:20.949Z,16.54
2024-02-29T02:14:47.578Z,16.45
2024-02-29T02:17:14.319Z,16.58
2024-02-29T02:19:42.751Z,16.54
2024-02-29T02:22:10.944Z,16.56
2024-02-29T02:24:37.961Z,16.54
2024-02-29T02:27:04.684Z,16.58
2024-02-29T02:29:31.348Z,16.57
2024-02-29T02:31:57.972Z,16.57
2024-02-29T02:34:24.914Z,16.57
2024-02-29T02:36:51.704Z,16.57
2024-02-29T02:39:18.526Z,16.58
2024-02-29T02:41:46.343Z,16.57
2024-02-29T02:44:13.504Z,16.52
2024-02-29T02:46:40.309Z,16.56
2024-02-29T02:49:07.216Z,16.51
2024-02-29T02:51:34.120Z,16.49
2024-02-29T02:54:00.804Z,16.51
2024-02-29T02:56:27.521Z,16.47
2024-02-29T02:58:54.302Z,16.51
2024-02-29T03:01:21.029Z,16.50
2024-02-29T03:03:47.936Z,16.42
2024-02-29T03:06:15.575Z,16.39
2024-02-29T03:08:42.329Z,16.48
2024-02-29T03:11:09.217Z,16.49
2024-02-29T03:13:36.062Z,16.48
2024-02-29T03:16:02.823Z,16.46
2024-02-29T03:18:29.561Z,16.48
2024-02-29T03:20:56.209Z,16.48
2024-02-29T03:23:22.885Z,16.42
2024-02-29T03:25:49.646Z,16.42
2024-02-29T03:28:16.320Z,16.46
2024-02-29T03:30:43.065Z,16.39
2024-02-29T03:33:09.759Z,16.42
2024-02-29T03:35:36.519Z,16.42
2024-02-29T03:38:04.023Z,16.47
2024-02-29T03:40:30.731Z,16.43
2024-02-29T03:42:57.630Z,16.40
2024-02-29T03:45:24.397Z,16.40
2024-02-29T03:47:51.072Z,16.46
2024-02-29T03:50:17.678Z,16.44
2024-02-29T03:52:44.341Z,16.36
2024-02-29T03:55:12.702Z,16.42
2024-02-29T03:57:39.492Z,16.34
2024-02-29T04:00:12.109Z,16.38
2024-02-29T04:02:39.921Z,16.38
2024-02-29T04:05:09.234Z,16.40
2024-02-29T04:07:39.595Z,16.41
2024-02-29T04:10:06.606Z,16.43
2024-02-29T04:12:33.626Z,16.36
2024-02-29T04:15:02.766Z,16.34
2024-02-29T04:17:33.094Z,16.46
2024-02-29T04:19:59.804Z,16.50
2024-02-29T04:22:26.485Z,16.43
2024-02-29T04:24:53.243Z,16.44
2024-02-29T04:27:19.938Z,16.42
2024-02-29T04:29:49.574Z,16.40
2024-02-29T04:32:16.200Z,16.41
2024-02-29T04:34:43.045Z,16.38
2024-02-29T04:37:09.813Z,16.35
2024-02-29T04:39:36.587Z,16.38
2024-02-29T04:42:04.680Z,16.35
2024-02-29T04:44:31.387Z,16.32
2024-02-29T04:46:58.075Z,16.28
2024-02-29T04:49:24.760Z,16.32
2024-02-29T04:51:51.488Z,16.37
2024-02-29T04:54:18.537Z,16.37
2024-02-29T04:56:45.264Z,16.29
2024-02-29T04:59:11.944Z,16.30
2024-02-29T05:01:38.797Z,16.18
2024-02-29T05:04:05.727Z,16.20
2024-02-29T05:06:32.477Z,16.30
2024-02-29T05:08:59.839Z,16.23
2024-02-29T05:11:27.339Z,16.25
2024-02-29T05:13:54.041Z,16.26
2024-02-29T05:16:21.474Z,16.25
2024-02-29T05:18:48.232Z,16.26
2024-02-29T05:21:14.998Z,16.21
2024-02-29T05:23:41.705Z,16.26
2024-02-29T05:26:09.149Z,16.27
2024-02-29T05:28:36.001Z,16.27
2024-02-29T05:31:02.752Z,16.31
2024-02-29T05:33:29.458Z,16.20
2024-02-29T05:35:56.081Z,16.25
2024-02-29T05:38:22.686Z,16.23
2024-02-29T05:40:49.320Z,16.21
2024-02-29T05:43:16.149Z,16.20
2024-02-29T05:45:42.960Z,16.15
2024-02-29T05:48:09.958Z,16.16
2024-02-29T05:50:36.617Z,16.16
2024-02-29T05:53:03.420Z,16.18
2024-02-29T05:55:30.041Z,16.14
2024-02-29T05:57:56.675Z,16.21
2024-02-29T06:00:23.469Z,16.20
2024-02-29T06:02:52.846Z,16.16
2024-02-29T06:05:20.457Z,16.18
2024-02-29T06:07:47.140Z,16.17
2024-02-29T06:10:13.802Z,16.13
2024-02-29T06:12:40.813Z,16.15
2024-02-29T06:15:11.102Z,16.12
2024-02-29T06:17:39.220Z,16.12
2024-02-29T06:20:11.663Z,16.14
2024-02-29T06:22:40.713Z,16.14
2024-02-29T06:25:09.936Z,16.14
2024-02-29T06:27:37.464Z,16.12
2024-02-29T06:30:05.468Z,16.14
2024-02-29T06:32:32.361Z,16.07
2024-02-29T06:34:59.149Z,16.05
2024-02-29T06:37:25.832Z,16.15
2024-02-29T06:39:52.639Z,16.06
2024-02-29T06:42:19.989Z,16.02
2024-02-29T06:44:46.595Z,16.06
2024-02-29T06:47:13.209Z,16.09
2024-02-29T06:49:39.822Z,16.02
2024-02-29T06:52:06.512Z,16.05
2024-02-29T06:54:33.166Z,16.10
2024-02-29T06:56:59.994Z,16.05
2024-02-29T06:59:26.633Z,16.03
2024-02-29T07:01:53.411Z,16.02
2024-02-29T07:04:20.194Z,15.99
2024-02-29T07:06:47.955Z,16.04
2024-02-29T07:09:14.620Z,16.06
2024-02-29T07:11:42.040Z,16.08
2024-02-29T07:14:08.758Z,16.08
2024-02-29T07:16:37.214Z,16.12
2024-02-29T07:19:05.270Z,16.01
2024-02-29T07:21:33.436Z,16.04
2024-02-29T07:24:00.182Z,16.09
2024-02-29T07:26:27.403Z,16.12
2024-02-29T07:28:54.156Z,16.04
2024-02-29T07:31:21.420Z,16.05
2024-02-29T07:33:48.216Z,16.03
2024-02-29T07:36:14.866Z,16.04
2024-02-29T07:38:41.479Z,16.04
2024-02-29T07:41:11.175Z,16.28
2024-02-29T07:43:37.805Z,16.35
2024-02-29T07:46:04.648Z,16.34
2024-02-29T07:48:31.454Z,16.36
2024-02-29T07:50:58.070Z,16.45
2024-02-29T07:53:24.707Z,16.55
2024-02-29T07:55:51.317Z,16.65
2024-02-29T07:58:18.131Z,16.56
2024-02-29T08:00:44.814Z,16.62
2024-02-29T08:03:11.531Z,16.60
2024-02-29T08:05:39.584Z,16.67
2024-02-29T08:08:06.402Z,16.73
2024-02-29T08:10:33.030Z,16.64
2024-02-29T08:12:59.711Z,16.62
2024-02-29T08:15:26.409Z,16.71
2024-02-29T08:17:53.178Z,16.58
2024-02-29T08:20:21.415Z,16.50
2024-02-29T08:22:54.952Z,16.60
2024-02-29T08:25:22.571Z,16.56
2024-02-29T08:27:49.843Z,16.53
2024-02-29T08:30:17.145Z,16.57
2024-02-29T08:32:44.438Z,16.58
2024-02-29T08:35:11.458Z,16.56
2024-02-29T08:37:38.147Z,16.49
2024-02-29T08:40:06.244Z,16.38
2024-02-29T08:42:32.995Z,16.39
2024-02-29T08:44:59.603Z,16.42
2024-02-29T08:47:26.252Z,16.37
2024-02-29T08:49:54.254Z,16.23
2024-02-29T08:52:21.272Z,16.16
2024-02-29T08:54:48.382Z,16.17
2024-02-29T08:57:15.088Z,16.10
2024-02-29T08:59:42.359Z,16.22
2024-02-29T09:02:09.048Z,16.13
2024-02-29T09:04:35.689Z,16.15
2024-02-29T09:07:03.845Z,16.18
2024-02-29T09:09:30.726Z,16.12
2024-02-29T09:11:57.506Z,16.22
2024-02-29T09:14:24.160Z,16.23
2024-02-29T09:16:51.423Z,16.28
2024-02-29T09:19:18.166Z,16.25
2024-02-29T09:21:45.140Z,16.25
2024-02-29T09:24:14.762Z,16.20
2024-02-29T09:26:42.680Z,16.20
2024-02-29T09:29:09.393Z,16.23
2024-02-29T09:31:38.573Z,16.22
2024-02-29T09:34:05.311Z,16.26
2024-02-29T09:36:32.899Z,16.23
2024-02-29T09:38:59.615Z,16.33
2024-02-29T09:43:59.224Z,16.22
2024-02-29T09:46:25.838Z,16.22
2024-02-29T09:48:53.435Z,16.22
2024-02-29T09:51:23.295Z,16.23
2024-02-29T09:53:51.964Z,16.23
2024-02-29T09:56:26.669Z,16.22
2024-02-29T09:58:53.824Z,16.21
2024-02-29T10:01:20.970Z,16.22
2024-02-29T10:03:48.025Z,16.26
2024-02-29T10:06:15.075Z,16.26
2024-02-29T10:08:41.999Z,16.25
2024-02-29T10:11:08.831Z,16.25
2024-02-29T10:13:40.127Z,16.27
2024-02-29T10:16:08.506Z,16.29
2024-02-29T10:18:36.970Z,16.30
2024-02-29T10:21:14.274Z,16.32
2024-02-29T10:23:41.175Z,16.26
2024-02-29T10:26:08.597Z,16.34
2024-02-29T10:28:35.429Z,16.35
2024-02-29T10:31:02.596Z,16.31
2024-02-29T10:33:29.709Z,16.31
2024-02-29T10:35:57.539Z,16.33
2024-02-29T10:38:24.389Z,16.34
2024-02-29T10:40:54.551Z,16.35
2024-02-29T10:43:21.927Z,16.35
2024-02-29T10:45:51.929Z,16.34
2024-02-29T10:48:21.198Z,16.39
2024-02-29T10:51:04.739Z,16.26
2024-02-29T10:53:49.737Z,16.32
2024-02-29T10:56:26.421Z,16.36
2024-02-29T10:59:06.343Z,16.42
2024-02-29T11:01:33.675Z,16.34
2024-02-29T11:04:00.617Z,16.36
2024-02-29T11:06:29.107Z,16.38
2024-02-29T11:08:56.312Z,16.36
2024-02-29T11:11:26.361Z,16.37
2024-02-29T11:14:08.999Z,16.42
2024-02-29T11:16:42.960Z,16.37
2024-02-29T11:19:16.940Z,16.42
2024-02-29T11:21:43.825Z,16.39
2024-02-29T11:24:17.105Z,16.37
2024-02-29T11:26:43.801Z,16.40
2024-02-29T11:29:20.976Z,16.42
2024-02-29T11:31:57.569Z,16.45
2024-02-29T11:34:24.401Z,16.44
2024-02-29T11:36:52.177Z,16.42
2024-02-29T11:39:22.139Z,16.41
2024-02-29T11:41:49.771Z,16.43
2024-02-29T11:44:16.819Z,16.48
2024-02-29T11:46:47.471Z,16.51
2024-02-29T11:49:16.095Z,16.50
2024-02-29T11:51:43.803Z,16.48
2024-02-29T11:54:11.584Z,16.43
2024-02-29T11:56:38.985Z,16.51
2024-02-29T11:59:07.843Z,16.51
2024-02-29T12:01:37.671Z,16.52
2024-02-29T12:04:06.035Z,16.53
2024-02-29T12:06:34.478Z,16.59
2024-02-29T12:09:01.548Z,16.62
2024-02-29T12:11:28.309Z,16.53
2024-02-29T12:13:55.133Z,16.57
2024-02-29T12:16:21.820Z,16.60
2024-02-29T12:18:48.540Z,16.56
2024-02-29T12:21:15.193Z,16.56
2024-02-29T12:23:41.863Z,16.57
2024-02-29T12:26:12.392Z,16.59
2024-02-29T12:28:39.994Z,16.60
2024-02-29T12:31:07.880Z,16.60
2024-02-29T12:33:39.325Z,16.56
2024-02-29T12:36:07.902Z,16.59
2024-02-29T12:38:35.670Z,16.68
2024-02-29T12:41:03.667Z,16.67
2024-02-29T12:43:30.573Z,16.66
2024-02-29T12:45:57.300Z,16.62
2024-02-29T12:48:24.900Z,16.62
2024-02-29T12:50:52.367Z,16.69
2024-02-29T12:53:19.190Z,16.72
2024-02-29T12:55:46.123Z,16.70
2024-02-29T12:58:13.214Z,16.68
2024-02-29T13:00:40.107Z,16.68
2024-02-29T13:03:08.307Z,16.74
2024-02-29T13:05:35.659Z,16.68
2024-02-29T13:08:05.419Z,16.76
2024-02-29T13:10:32.071Z,16.77
2024-02-29T13:13:04.009Z,16.75
2024-02-29T13:15:36.454Z,16.77
2024-02-29T13:18:03.227Z,16.76
2024-02-29T13:20:29.906Z,16.78
2024-02-29T13:22:56.639Z,16.78
2024-02-29T13:25:23.516Z,16.75
2024-02-29T13:27:50.340Z,16.78
2024-02-29T13:30:17.104Z,16.82
2024-02-29T13:32:43.797Z,16.74
2024-02-29T13:35:10.475Z,16.80
2024-02-29T13:37:37.222Z,16.76
2024-02-29T13:40:05.229Z,16.77
2024-02-29T13:42:32.063Z,16.79
2024-02-29T13:44:58.695Z,16.80
2024-02-29T13:47:25.304Z,16.81
2024-02-29T13:49:52.050Z,16.87
2024-02-29T13:52:19.256Z,16.77
2024-02-29T13:54:47.054Z,16.78
2024-02-29T13:57:15.301Z,16.80
2024-02-29T13:59:43.623Z,16.79
2024-02-29T14:02:10.507Z,16.84
2024-02-29T14:04:37.812Z,16.88
2024-02-29T14:07:05.369Z,16.85
2024-02-29T14:09:34.072Z,16.83
2024-02-29T14:12:00.768Z,16.86
2024-02-29T14:14:27.446Z,16.84
2024-02-29T14:16:54.086Z,16.81
2024-02-29T14:19:20.827Z,16.83
2024-02-29T14:21:47.717Z,16.85
2024-02-29T14:24:14.365Z,16.85
2024-02-29T14:26:41.096Z,16.88
2024-02-29T14:29:09.027Z,16.93
2024-02-29T14:31:35.799Z,16.88
2024-02-29T14:34:02.581Z,16.86
2024-02-29T14:36:29.206Z,16.81
2024-02-29T14:38:55.885Z,16.88
2024-02-29T14:41:22.569Z,16.86
2024-02-29T14:43:49.321Z,16.90
2024-02-29T14:46:16.209Z,16.91
2024-02-29T14:48:42.910Z,16.91
2024-02-29T14:51:09.519Z,16.95
2024-02-29T14:53:36.155Z,16.91
2024-02-29T14:56:02.784Z,16.93
2024-02-29T14:58:30.810Z,16.94
2024-02-29T15:00:57.758Z,16.95
2024-02-29T15:03:24.510Z,16.94
2024-02-29T15:05:51.157Z,16.97
2024-02-29T15:08:20.019Z,17.01
2024-02-29T15:10:47.246Z,17.01
2024-02-29T15:13:14.003Z,16.97
2024-02-29T15:15:41.228Z,17.04
2024-02-29T15:18:08.021Z,17.02
2024-02-29T15:20:34.765Z,17.01
2024-02-29T15:23:01.418Z,17.05
2024-02-29T15:25:29.638Z,17.04
2024-02-29T15:27:58.012Z,17.02
2024-02-29T15:30:24.914Z,17.03
2024-02-29T15:32:52.305Z,17.01
2024-02-29T15:35:18.971Z,17.00
2024-02-29T15:37:45.614Z,17.03
2024-02-29T15:40:12.518Z,16.99
2024-02-29T15:42:39.706Z,17.01
2024-02-29T15:45:06.922Z,17.01
2024-02-29T15:47:33.604Z,17.03
2024-02-29T15:50:00.273Z,17.03
2024-02-29T15:52:27.093Z,17.01
2024-02-29T15:54:53.834Z,17.01
2024-02-29T15:57:20.486Z,17.02
2024-02-29T15:59:47.209Z,17.04
2024-02-29T16:02:13.919Z,17.02
2024-02-29T16:04:40.661Z,17.04
2024-02-29T16:07:07.298Z,17.02
2024-02-29T16:09:33.937Z,17.05
2024-02-29T16:12:00.871Z,17.03
2024-02-29T16:14:30.334Z,17.04
2024-02-29T16:16:59.069Z,17.01
2024-02-29T16:19:28.160Z,17.05
2024-02-29T16:21:57.966Z,17.01
2024-02-29T16:24:24.683Z,17.05
2024-02-29T16:26:53.540Z,17.06
2024-02-29T16:29:20.245Z,17.03
2024-02-29T16:31:47.557Z,17.08
2024-02-29T16:34:14.318Z,17.13
2024-02-29T16:36:41.522Z,17.07
2024-02-29T16:39:08.374Z,17.08
2024-02-29T16:41:34.986Z,17.07
2024-02-29T16:44:01.653Z,17.06
2024-02-29T16:46:28.391Z,17.06
2024-02-29T16:48:57.919Z,17.12
2024-02-29T16:51:24.576Z,17.10
2024-02-29T16:53:55.234Z,17.06
2024-02-29T16:56:24.294Z,17.09
2024-02-29T16:58:51.951Z,17.12
2024-02-29T17:01:20.165Z,17.08
2024-02-29T17:03:46.988Z,17.02
2024-02-29T17:06:13.672Z,17.02
2024-02-29T17:08:40.325Z,17.02
2024-02-29T17:11:09.847Z,17.01
2024-02-29T17:13:36.537Z,16.98
2024-02-29T17:16:03.175Z,17.05
2024-02-29T17:18:30.929Z,17.01
2024-02-29T17:20:57.572Z,17.01
2024-02-29T17:23:24.259Z,17.00
2024-02-29T17:25:50.868Z,17.03
2024-02-29T17:28:17.518Z,17.00
2024-02-29T17:30:44.411Z,17.04
2024-02-29T17:33:11.167Z,17.05
2024-02-29T17:35:40.299Z,17.06
2024-02-29T17:38:07.227Z,17.03
2024-02-29T17:40:33.933Z,17.08
2024-02-29T17:43:00.648Z,17.00
2024-02-29T17:45:27.310Z,17.00
2024-02-29T17:47:53.972Z,17.02
2024-02-29T17:50:21.641Z,17.02
2024-02-29T17:52:48.681Z,17.08
2024-02-29T17:55:16.626Z,17.05
2024-02-29T17:57:46.924Z,17.03
2024-02-29T18:00:15.434Z,17.11
2024-02-29T18:02:42.917Z,17.09
2024-02-29T18:05:11.282Z,17.09
2024-02-29T18:07:43.797Z,17.05
2024-02-29T18:10:17.765Z,17.06
2024-02-29T18:12:44.644Z,17.12
2024-02-29T18:15:12.467Z,17.10
2024-02-29T18:17:39.215Z,17.04
2024-02-29T18:20:09.128Z,17.06
2024-02-29T18:22:35.878Z,17.06
2024-02-29T18:25:02.807Z,16.98
2024-02-29T18:27:29.748Z,17.06
2024-02-29T18:29:56.413Z,17.08
2024-02-29T18:32:23.145Z,17.01
2024-02-29T18:34:49.789Z,17.01
2024-02-29T18:37:16.440Z,17.01
2024-02-29T18:39:43.174Z,17.04
2024-02-29T18:42:10.402Z,17.00
2024-02-29T18:44:37.070Z,17.03
2024-02-29T18:47:03.943Z,17.00
2024-02-29T18:49:30.682Z,17.07
2024-02-29T18:51:57.485Z,17.00
2024-02-29T18:54:24.170Z,16.97
2024-02-29T18:56:50.844Z,16.99
2024-02-29T18:59:18.377Z,16.98
2024-02-29T19:01:45.368Z,16.97
2024-02-29T19:04:13.015Z,17.00
2024-02-29T19:06:39.727Z,16.99
2024-02-29T19:09:07.452Z,16.96
2024-02-29T19:11:35.133Z,16.99
2024-02-29T19:14:01.845Z,16.97
2024-02-29T19:16:28.573Z,16.93
2024-02-29T19:18:55.327Z,16.93
2024-02-29T19:21:21.994Z,16.88
2024-02-29T19:23:49.070Z,16.91
2024-02-29T19:26:15.810Z,16.94
2024-02-29T19:28:42.432Z,16.92
2024-02-29T19:31:09.116Z,16.91
2024-02-29T19:33:38.960Z,16.94
2024-02-29T19:36:06.773Z,16.92
2024-02-29T19:38:33.387Z,16.92
2024-02-29T19:40:59.990Z,16.99
2024-02-29T19:43:26.671Z,16.96
2024-02-29T19:45:53.446Z,16.93
2024-02-29T19:48:20.109Z,16.94
2024-02-29T19:50:48.318Z,16.91
2024-02-29T19:53:15.143Z,17.01
2024-02-29T19:55:43.260Z,16.94
2024-02-29T19:58:10.487Z,16.99
2024-02-29T20:00:37.220Z,16.94
2024-02-29T20:03:04.155Z,17.00
2024-02-29T20:05:31.687Z,16.95
2024-02-29T20:07:58.423Z,16.97
2024-02-29T20:10:25.327Z,17.00
2024-02-29T20:12:52.096Z,16.91
2024-02-29T20:15:18.862Z,16.99
2024-02-29T20:17:45.511Z,17.02
2024-02-29T20:20:12.459Z,16.97
2024-02-29T20:22:39.159Z,16.97
2024-02-29T20:25:06.833Z,16.98
2024-02-29T20:27:36.798Z,16.98
2024-02-29T20:30:04.558Z,16.98
2024-02-29T20:32:31.235Z,16.96
2024-02-29T20:34:57.875Z,16.96
2024-02-29T20:37:24.649Z,16.94
2024-02-29T20:39:53.011Z,16.94
2024-02-29T20:42:19.615Z,16.91
2024-02-29T20:44:46.240Z,16.94
2024-02-29T20:47:12.894Z,17.00
2024-02-29T20:49:39.582Z,16.98
2024-02-29T20:52:07.805Z,16.99
2024-02-29T20:54:34.550Z,16.93
2024-02-29T20:57:01.169Z,16.91
2024-02-29T20:59:28.492Z,16.92
2024-02-29T21:01:55.235Z,16.94
2024-02-29T21:04:22.068Z,16.94
2024-02-29T21:06:49.221Z,16.93
2024-02-29T21:09:16.426Z,16.94
2024-02-29T21:11:44.249Z,16.92
2024-02-29T21:14:10.928Z,16.90
2024-02-29T21:16:37.720Z,16.90
2024-02-29T21:19:04.437Z,16.94
2024-02-29T21:21:32.338Z,16.85
2024-02-29T21:23:58.986Z,16.85
2024-02-29T21:26:25.604Z,16.91
2024-02-29T21:28:52.225Z,16.92
2024-02-29T21:31:19.077Z,16.85
2024-02-29T21:33:45.775Z,16.88
2024-02-29T21:36:12.573Z,16.85
2024-02-29T21:38:39.199Z,16.85
2024-02-29T21:41:05.803Z,16.83
2024-02-29T21:43:32.491Z,16.88
2024-02-29T21:45:59.473Z,16.88
2024-02-29T21:48:26.107Z,16.83
2024-02-29T21:50:53.011Z,16.84
2024-02-29T21:53:19.757Z,16.84
2024-02-29T21:55:46.431Z,16.82
2024-02-29T21:58:13.146Z,16.83
2024-02-29T22:00:39.822Z,16.85
2024-02-29T22:03:06.483Z,16.82
2024-02-29T22:05:33.200Z,16.82
2024-02-29T22:07:59.824Z,16.81
2024-02-29T22:10:26.546Z,16.83
2024-02-29T22:12:53.924Z,16.82
2024-02-29T22:15:20.649Z,16.85
2024-02-29T22:17:47.494Z,16.83
2024-02-29T22:20:14.168Z,16.88
2024-02-29T22:22:40.796Z,16.83
2024-02-29T22:25:08.607Z,16.83
2024-02-29T22:27:35.291Z,16.82
2024-02-29T22:30:02.018Z,16.78
2024-02-29T22:32:28.695Z,16.79
2024-02-29T22:34:55.345Z,16.84
2024-02-29T22:37:22.409Z,16.81
2024-02-29T22:39:49.476Z,16.79
2024-02-29T22:42:16.128Z,16.79
2024-02-29T22:44:42.721Z,16.78
2024-02-29T22:47:09.368Z,16.83
2024-02-29T22:49:36.007Z,16.82
2024-02-29T22:52:03.078Z,16.79
2024-02-29T22:54:29.766Z,16.78
2024-02-29T22:56:56.387Z,16.82
2024-02-29T22:59:23.028Z,16.82
2024-02-29T23:01:49.858Z,16.80
2024-02-29T23:04:16.819Z,16.79
2024-02-29T23:06:44.389Z,16.78
2024-02-29T23:09:11.694Z,16.77
2024-02-29T23:11:38.808Z,16.77
2024-02-29T23:14:05.555Z,16.73
2024-02-29T23:16:32.313Z,16.77
2024-02-29T23:18:59.058Z,16.70
2024-02-29T23:21:25.758Z,16.77
2024-02-29T23:23:52.428Z,16.76
2024-02-29T23:26:19.081Z,16.76
2024-02-29T23:28:45.712Z,16.73
2024-02-29T23:31:12.740Z,16.73
2024-02-29T23:33:39.541Z,16.72
2024-02-29T23:36:07.818Z,16.68
2024-02-29T23:38:34.577Z,16.74
2024-02-29T23:41:01.244Z,16.71
2024-02-29T23:43:28.607Z,16.74
2024-02-29T23:45:55.306Z,16.77
2024-02-29T23:48:22.548Z,16.70
2024-02-29T23:50:49.495Z,16.74
2024-02-29T23:53:16.120Z,16.72
2024-02-29T23:55:42.811Z,16.73
2024-02-29T23:58:09.475Z,16.77
